Weather at Stora-Holt Airport

Public forecast

Using degrees Celsius for public forecast. Weather courtesy of forecast.io.

Closest aviation weather report (METAR) to Stora-Holt Airport

Closest report is Bildudalur Airport, 42.7 nm (79.0 km) WNW. Retrieved 2021/06/21 10:00 UTC (45 minutes ago):

BIBD 211000Z 20012KT 9999 RA FEW015 OVC025 09/05 Q1007

Closest aviation forecast (TAF) to Stora-Holt Airport

Closest forecast is Reykjavik Airport, 76.3 nm (141.2 km) S. Retrieved 2021/06/21 09:34 UTC (1 hour ago):

TAF BIRK 210732Z 2109/2209 18012KT 9999 OVC020 TX09/2115Z TN07/2112Z TEMPO 2109/2119 5000 RADZ BKN008 OVC013 BECMG 2110/2112 16022KT -RADZ BKN013 OVC020 BECMG 2119/2121 24012KT SCT025 BKN040 TEMPO 2120/2202 1500 -DZ BR OVC005 BECMG 2202/2204 -SHRA BKN018